Time;durP1;ratioP1;P1;durP2;ratioP2;P2;SDS_P1;SDS_P2;PMS_P1;PMS_P2;Temp;Humidity;BMP_temperature;BMP_pressure;BME280_temperature;BME280_humidity;BME280_pressure;Samples;Min_cycle;Max_cycle;Signal;HPM_P1;HPM_P2
2023/03/18 00:00:37;;;;;;;;;;;;;;;14.98;40.39;100270.16;4954439;28;98041;-62
2023/03/18 00:03:03;;;;;;;;;;;;;;;14.98;40.15;100270.16;4948310;28;99047;-65
2023/03/18 00:05:29;;;;;;;;;;;;;;;14.97;40.41;100263.13;4935327;28;127808;-65
2023/03/18 00:07:55;;;;;;;;;;;;;;;14.95;40.34;100267.22;4953132;28;98356;-62
2023/03/18 00:10:21;;;;;;;;;;;;;;;14.93;40.44;100264.81;4958531;28;98183;-65
2023/03/18 00:12:47;;;;;;;;;;;;;;;14.91;40.40;100263.50;4956474;28;128555;-64
2023/03/18 00:15:15;;;;;;;;;;;;;;;14.89;40.30;100260.28;4956798;28;128188;-64
2023/03/18 00:17:41;;;;;;;;;;;;;;;14.87;40.48;100268.72;4956778;28;99503;-62
2023/03/18 00:20:08;;;;;;;;;;;;;;;14.88;40.45;100269.53;4953618;28;97971;-64
2023/03/18 00:22:34;;;;;;;;;;;;;;;14.86;40.36;100267.13;4956572;28;98522;-62
2023/03/18 00:25:00;;;;;;;;;;;;;;;14.84;40.48;100261.19;4955288;28;99031;-62
2023/03/18 00:27:27;;;;;;;;;;;;;;;14.83;40.13;100248.72;4956527;28;97973;-63
2023/03/18 00:29:53;;;;;;;;;;;;;;;14.84;40.53;100252.25;4954801;28;97926;-62
2023/03/18 00:32:20;;;;;;;;;;;;;;;14.82;40.29;100255.25;4956578;28;98539;-62
2023/03/18 00:34:46;;;;;;;;;;;;;;;14.82;40.16;100251.75;4944482;28;99264;-62
2023/03/18 00:37:17;;;;;;;;;;;;;;;14.81;40.32;100248.22;4935934;28;98270;-62
2023/03/18 00:39:45;;;;;;;;;;;;;;;14.80;40.43;100243.09;4957633;28;97773;-65
2023/03/18 00:42:12;;;;;;;;;;;;;;;14.79;40.30;100250.44;4956821;28;98702;-61
2023/03/18 00:44:38;;;;;;;;;;;;;;;14.77;40.22;100252.63;4955941;28;98533;-65
2023/03/18 00:47:04;;;;;;;;;;;;;;;14.75;40.32;100249.44;4954151;28;98390;-62
2023/03/18 00:49:30;;;;;;;;;;;;;;;14.76;40.47;100258.38;4953581;28;110289;-65
2023/03/18 00:51:56;;;;;;;;;;;;;;;14.73;40.29;100255.13;4953286;28;128095;-64
2023/03/18 00:54:23;;;;;;;;;;;;;;;14.73;40.38;100265.19;4952797;28;99153;-64
2023/03/18 00:56:49;;;;;;;;;;;;;;;14.72;40.51;100256.25;4956618;28;98605;-62
2023/03/18 00:59:15;;;;;;;;;;;;;;;14.70;40.21;100244.91;4954120;28;123237;-63
2023/03/18 01:01:41;;;;;;;;;;;;;;;14.69;40.42;100242.47;4957661;28;99421;-62
2023/03/18 01:04:07;;;;;;;;;;;;;;;14.69;40.23;100254.13;4954015;28;98857;-64
2023/03/18 01:06:34;;;;;;;;;;;;;;;14.69;40.18;100247.91;4954387;28;127636;-64
2023/03/18 01:09:04;;;;;;;;;;;;;;;14.68;40.13;100244.38;4952343;28;98240;-65
2023/03/18 01:11:29;;;;;;;;;;;;;;;14.68;40.27;100235.44;4951820;28;125066;-63
2023/03/18 01:13:56;;;;;;;;;;;;;;;14.67;40.49;100239.28;4954395;28;118562;-62
2023/03/18 01:16:22;;;;;;;;;;;;;;;14.67;40.04;100239.28;4955309;28;98526;-62
2023/03/18 01:18:48;;;;;;;;;;;;;;;14.67;40.44;100241.97;4952388;28;121745;-63
2023/03/18 01:21:14;;;;;;;;;;;;;;;14.65;40.17;100231.41;4952412;28;127444;-62
2023/03/18 01:23:41;;;;;;;;;;;;;;;14.65;40.35;100220.56;4952584;28;98576;-66
2023/03/18 01:26:07;;;;;;;;;;;;;;;14.65;40.16;100228.72;4934738;28;97977;-64
2023/03/18 01:28:33;;;;;;;;;;;;;;;14.65;40.12;100231.41;4954762;28;97768;-62
2023/03/18 01:30:59;;;;;;;;;;;;;;;14.65;40.29;100228.72;4941229;28;98363;-63
2023/03/18 01:33:26;;;;;;;;;;;;;;;14.65;40.20;100242.25;4953555;28;98288;-62
2023/03/18 01:35:54;;;;;;;;;;;;;;;14.64;40.45;100232.53;4957736;28;98232;-62
2023/03/18 01:38:20;;;;;;;;;;;;;;;14.64;40.34;100229.00;4957703;28;98092;-63
2023/03/18 01:40:46;;;;;;;;;;;;;;;14.63;40.10;100228.22;4941174;28;99282;-62
2023/03/18 01:43:23;;;;;;;;;;;;;;;14.63;40.14;100220.06;4951780;28;98566;-62
2023/03/18 01:45:54;;;;;;;;;;;;;;;14.64;40.32;100231.72;4949862;28;100143;-62
2023/03/18 01:48:22;;;;;;;;;;;;;;;14.63;40.39;100227.41;4952015;28;97965;-63
2023/03/18 01:50:52;;;;;;;;;;;;;;;14.62;40.48;100220.34;4954061;28;98536;-62
2023/03/18 01:53:19;;;;;;;;;;;;;;;14.60;40.17;100212.53;4936336;28;99083;-63
2023/03/18 01:55:45;;;;;;;;;;;;;;;14.61;40.15;100216.03;4934967;28;98330;-66
2023/03/18 01:58:23;;;;;;;;;;;;;;;14.59;40.08;100223.69;4936881;28;99242;-62
2023/03/18 02:00:53;;;;;;;;;;;;;;;14.58;40.48;100220.19;4920567;28;98467;-66
2023/03/18 02:03:19;;;;;;;;;;;;;;;14.56;40.42;100221.56;4917581;28;99186;-62
2023/03/18 02:05:46;;;;;;;;;;;;;;;14.54;40.28;100230.03;4956805;28;97939;-62
2023/03/18 02:08:12;;;;;;;;;;;;;;;14.50;40.24;100234.41;4937069;28;98567;-63
2023/03/18 02:10:38;;;;;;;;;;;;;;;14.48;40.24;100234.69;4952789;28;98939;-62
2023/03/18 02:13:06;;;;;;;;;;;;;;;14.46;40.40;100234.19;4951527;28;127119;-65
2023/03/18 02:15:33;;;;;;;;;;;;;;;14.45;40.43;100232.56;4935383;28;122019;-62
2023/03/18 02:18:07;;;;;;;;;;;;;;;14.43;40.27;100234.78;4950586;28;98384;-62
2023/03/18 02:20:41;;;;;;;;;;;;;;;14.41;40.22;100236.97;4950880;28;100036;-64
2023/03/18 02:23:10;;;;;;;;;;;;;;;14.40;40.05;100235.38;4934845;28;123599;-62
2023/03/18 02:25:52;;;;;;;;;;;;;;;14.39;40.31;100241.91;4936620;28;105324;-64
2023/03/18 02:28:23;;;;;;;;;;;;;;;14.37;40.29;100233.25;4938917;28;118492;-65
2023/03/18 02:30:54;;;;;;;;;;;;;;;14.37;40.30;100237.88;4922262;28;99600;-65
2023/03/18 02:33:21;;;;;;;;;;;;;;;14.35;40.04;100240.91;4942042;28;98523;-65
2023/03/18 02:35:49;;;;;;;;;;;;;;;14.34;40.05;100239.25;4955188;28;97919;-62
2023/03/18 02:38:15;;;;;;;;;;;;;;;14.33;40.49;100237.66;4934688;28;119667;-65
2023/03/18 02:40:41;;;;;;;;;;;;;;;14.32;40.09;100243.38;4954910;28;99128;-65
2023/03/18 02:43:20;;;;;;;;;;;;;;;14.30;40.41;100246.38;4953636;28;121164;-62
2023/03/18 02:46:19;;;;;;;;;;;;;;;14.29;39.97;100250.22;4947087;28;98840;-65
2023/03/18 02:48:45;;;;;;;;;;;;;;;14.29;40.38;100254.81;4935365;28;97926;-65
2023/03/18 02:51:13;;;;;;;;;;;;;;;14.28;40.42;100253.22;4938495;28;99082;-62
2023/03/18 02:53:39;;;;;;;;;;;;;;;14.27;40.35;100252.41;4948853;28;98450;-66
2023/03/18 02:56:05;;;;;;;;;;;;;;;14.26;40.15;100250.78;4933524;28;98508;-63
2023/03/18 02:58:31;;;;;;;;;;;;;;;14.24;40.03;100248.38;4951119;28;98120;-64
2023/03/18 03:00:57;;;;;;;;;;;;;;;14.24;40.10;100256.53;4911865;28;128913;-65
2023/03/18 03:03:25;;;;;;;;;;;;;;;14.25;40.12;100265.44;4953597;28;100259;-64
2023/03/18 03:05:51;;;;;;;;;;;;;;;14.24;40.47;100261.16;4956643;28;98675;-65
2023/03/18 03:08:17;;;;;;;;;;;;;;;14.22;40.37;100258.72;4954462;28;98063;-64
2023/03/18 03:10:43;;;;;;;;;;;;;;;14.21;40.38;100267.94;4951888;28;127786;-65
2023/03/18 03:13:10;;;;;;;;;;;;;;;14.21;40.45;100267.16;4952297;28;127317;-64
2023/03/18 03:15:39;;;;;;;;;;;;;;;14.19;40.23;100275.59;4956205;28;98028;-62
2023/03/18 03:18:06;;;;;;;;;;;;;;;14.18;40.31;100268.53;4952887;28;99603;-66
2023/03/18 03:20:34;;;;;;;;;;;;;;;14.16;40.36;100276.16;4949121;28;98911;-62
2023/03/18 03:23:00;;;;;;;;;;;;;;;14.14;40.43;100274.84;4952406;28;98479;-66
2023/03/18 03:25:27;;;;;;;;;;;;;;;14.14;40.23;100277.56;4933394;28;124248;-65
2023/03/18 03:27:53;;;;;;;;;;;;;;;14.11;40.30;100278.97;4950619;28;98660;-65
2023/03/18 03:30:19;;;;;;;;;;;;;;;14.10;40.05;100279.25;4952831;28;99365;-62
2023/03/18 03:32:45;;;;;;;;;;;;;;;14.10;40.04;100276.53;4951480;28;127208;-66
2023/03/18 03:35:14;;;;;;;;;;;;;;;14.09;40.03;100275.75;4951418;28;128454;-62
2023/03/18 03:37:41;;;;;;;;;;;;;;;14.07;39.86;100275.25;4952143;28;115486;-62
2023/03/18 03:40:08;;;;;;;;;;;;;;;14.07;40.35;100271.69;4939317;28;99057;-62
2023/03/18 03:42:34;;;;;;;;;;;;;;;14.06;40.19;100280.94;4950767;28;98164;-62
2023/03/18 03:45:00;;;;;;;;;;;;;;;14.03;40.37;100282.34;4954537;28;98156;-62
2023/03/18 03:47:26;;;;;;;;;;;;;;;14.00;40.06;100289.16;4955050;28;125064;-65
2023/03/18 03:49:52;;;;;;;;;;;;;;;14.02;39.96;100288.06;4943998;28;128185;-65
2023/03/18 03:52:18;;;;;;;;;;;;;;;14.02;39.97;100291.56;4957154;28;97932;-65
2023/03/18 03:54:45;;;;;;;;;;;;;;;14.00;40.25;100289.16;4958417;28;98980;-64
2023/03/18 03:57:11;;;;;;;;;;;;;;;13.99;40.28;100289.47;4957951;28;98011;-63
2023/03/18 03:59:37;;;;;;;;;;;;;;;13.97;40.11;100287.03;4938082;28;129222;-62
2023/03/18 04:02:02;;;;;;;;;;;;;;;13.95;40.21;100297.38;4935726;28;127251;-65
2023/03/18 04:04:28;;;;;;;;;;;;;;;13.96;40.33;100300.88;4955282;28;126675;-65
2023/03/18 04:06:54;;;;;;;;;;;;;;;13.95;40.37;100299.25;4957728;28;120098;-62
2023/03/18 04:09:20;;;;;;;;;;;;;;;13.93;40.29;100293.34;4954399;28;127771;-62
2023/03/18 04:11:47;;;;;;;;;;;;;;;13.92;40.25;100289.81;4932456;28;109327;-62
2023/03/18 04:14:13;;;;;;;;;;;;;;;13.91;40.21;100296.34;4953390;28;98178;-66
2023/03/18 04:16:39;;;;;;;;;;;;;;;13.91;40.33;100298.22;4934044;28;122304;-63
2023/03/18 04:19:06;;;;;;;;;;;;;;;13.90;40.18;100299.34;4946942;28;100257;-65
2023/03/18 04:21:32;;;;;;;;;;;;;;;13.89;40.05;100295.03;4957074;28;98422;-65
2023/03/18 04:23:58;;;;;;;;;;;;;;;13.88;39.94;100299.63;4940683;28;120756;-65
2023/03/18 04:26:24;;;;;;;;;;;;;;;13.87;39.99;100291.78;4949438;28;121431;-62
2023/03/18 04:28:50;;;;;;;;;;;;;;;13.85;40.34;100302.13;4953366;28;98337;-66
2023/03/18 04:31:16;;;;;;;;;;;;;;;13.84;40.25;100306.75;4957862;28;99047;-65
2023/03/18 04:33:43;;;;;;;;;;;;;;;13.82;40.04;100308.91;4951452;28;98494;-65
2023/03/18 04:36:09;;;;;;;;;;;;;;;13.82;40.06;100311.63;4956835;28;98684;-63
2023/03/18 04:38:35;;;;;;;;;;;;;;;13.81;40.26;100311.94;4956987;28;98968;-62
2023/03/18 04:41:01;;;;;;;;;;;;;;;13.80;39.97;100310.34;4953628;28;126927;-62
2023/03/18 04:43:27;;;;;;;;;;;;;;;13.79;40.18;100303.28;4951559;28;98521;-63
2023/03/18 04:45:53;;;;;;;;;;;;;;;13.77;40.08;100308.19;4956219;28;122692;-62
2023/03/18 04:48:19;;;;;;;;;;;;;;;13.74;40.11;100313.09;4952160;28;127929;-65
2023/03/18 04:50:45;;;;;;;;;;;;;;;13.73;40.26;100316.91;4955653;28;98665;-62
2023/03/18 04:53:11;;;;;;;;;;;;;;;13.71;40.22;100312.88;4951471;28;99701;-62
2023/03/18 04:55:37;;;;;;;;;;;;;;;13.69;40.18;100312.38;4923200;28;122525;-61
2023/03/18 04:58:03;;;;;;;;;;;;;;;13.67;40.14;100315.34;4936579;28;126740;-66
2023/03/18 05:00:29;;;;;;;;;;;;;;;13.67;40.20;100317.25;4954171;28;99468;-65
2023/03/18 05:02:55;;;;;;;;;;;;;;;13.63;40.27;100314.31;4955236;28;123688;-62
2023/03/18 05:05:21;;;;;;;;;;;;;;;13.62;40.18;100317.34;4956815;28;99509;-62
2023/03/18 05:07:47;;;;;;;;;;;;;;;13.61;40.03;100321.16;4937771;28;127309;-65
2023/03/18 05:10:13;;;;;;;;;;;;;;;13.61;40.41;100318.44;4951965;28;132181;-62
2023/03/18 05:12:39;;;;;;;;;;;;;;;13.61;40.26;100326.56;4954983;28;98566;-63
2023/03/18 05:15:05;;;;;;;;;;;;;;;13.63;40.38;100325.16;4954032;28;98001;-62
2023/03/18 05:17:31;;;;;;;;;;;;;;;13.64;40.32;100320.56;4951319;28;126201;-66
2023/03/18 05:19:57;;;;;;;;;;;;;;;13.66;40.23;100326.47;4951645;28;128438;-63
2023/03/18 05:22:23;;;;;;;;;;;;;;;13.68;40.18;100325.09;4953408;28;127751;-65
2023/03/18 05:24:49;;;;;;;;;;;;;;;13.71;40.38;100324.50;4956436;28;99018;-62
2023/03/18 05:27:17;;;;;;;;;;;;;;;13.73;40.30;100325.03;4952397;28;98240;-64
2023/03/18 05:29:42;;;;;;;;;;;;;;;13.72;40.21;100320.72;4951190;28;99128;-62
2023/03/18 05:32:08;;;;;;;;;;;;;;;13.74;40.25;100333.97;4950663;28;109999;-65
2023/03/18 05:34:38;;;;;;;;;;;;;;;13.75;40.12;100328.28;4948451;28;112232;-63
2023/03/18 05:37:05;;;;;;;;;;;;;;;13.84;40.29;100333.03;4948935;28;97827;-65
2023/03/18 05:39:31;;;;;;;;;;;;;;;13.93;40.24;100337.50;4949834;28;103743;-62
2023/03/18 05:41:58;;;;;;;;;;;;;;;14.02;40.07;100329.50;4951072;28;97879;-62
2023/03/18 05:44:24;;;;;;;;;;;;;;;14.14;39.96;100334.47;4951209;28;122844;-62
2023/03/18 05:46:51;;;;;;;;;;;;;;;14.22;39.90;100331.91;4946909;28;111876;-62
2023/03/18 05:49:17;;;;;;;;;;;;;;;14.30;40.12;100333.13;4949746;28;100719;-62
2023/03/18 05:51:43;;;;;;;;;;;;;;;14.38;40.14;100340.63;4954382;28;98264;-66
2023/03/18 05:54:10;;;;;;;;;;;;;;;14.44;39.74;100331.28;4950056;28;97940;-62
2023/03/18 05:56:36;;;;;;;;;;;;;;;14.52;40.01;100335.28;4950194;28;98007;-65
2023/03/18 05:59:02;;;;;;;;;;;;;;;14.58;39.74;100333.25;4950261;28;128794;-63
2023/03/18 06:01:30;;;;;;;;;;;;;;;14.65;40.13;100333.69;4946825;28;98423;-65
2023/03/18 06:03:56;;;;;;;;;;;;;;;14.71;40.09;100338.75;4951147;28;98281;-66
2023/03/18 06:06:22;;;;;;;;;;;;;;;14.78;39.80;100337.56;4948524;28;98893;-62
2023/03/18 06:08:48;;;;;;;;;;;;;;;14.83;40.21;100349.13;4953378;28;99474;-65
2023/03/18 06:11:14;;;;;;;;;;;;;;;14.88;39.99;100345.50;4947929;28;127216;-62
2023/03/18 06:13:40;;;;;;;;;;;;;;;14.92;39.71;100344.59;4946431;28;98434;-63
2023/03/18 06:16:07;;;;;;;;;;;;;;;14.97;39.91;100346.41;4949482;28;99019;-65
2023/03/18 06:18:34;;;;;;;;;;;;;;;15.02;39.99;100343.63;4946195;28;99370;-65
2023/03/18 06:21:00;;;;;;;;;;;;;;;15.08;39.94;100350.56;4949532;28;98508;-62
2023/03/18 06:23:26;;;;;;;;;;;;;;;15.15;39.93;100356.41;4953084;28;98066;-62
2023/03/18 06:25:52;;;;;;;;;;;;;;;15.22;40.01;100345.97;4951223;28;99089;-65
2023/03/18 06:28:18;;;;;;;;;;;;;;;15.31;39.75;100346.06;4947797;28;104107;-66
2023/03/18 06:30:44;;;;;;;;;;;;;;;15.42;39.33;100349.38;4949929;28;128232;-66
2023/03/18 06:33:10;;;;;;;;;;;;;;;15.51;39.70;100346.75;4946074;28;120900;-63
2023/03/18 06:35:35;;;;;;;;;;;;;;;15.66;39.55;100346.47;4952398;28;127561;-66
2023/03/18 06:38:01;;;;;;;;;;;;;;;15.78;39.51;100346.75;4949846;28;128600;-65
2023/03/18 06:40:27;;;;;;;;;;;;;;;15.88;39.45;100346.53;4948007;28;126688;-65
2023/03/18 06:42:53;;;;;;;;;;;;;;;16.04;39.44;100352.44;4951281;28;97787;-63
2023/03/18 06:45:21;;;;;;;;;;;;;;;16.17;39.21;100342.63;4950290;28;98255;-62
2023/03/18 06:47:48;;;;;;;;;;;;;;;16.31;39.33;100351.56;4952723;28;98854;-63
2023/03/18 06:50:14;;;;;;;;;;;;;;;16.47;39.20;100353.91;4934599;28;99091;-62
2023/03/18 06:52:41;;;;;;;;;;;;;;;16.61;39.12;100349.19;4934182;28;97946;-62
2023/03/18 06:55:07;;;;;;;;;;;;;;;16.76;39.15;100348.03;4948162;28;98872;-66
2023/03/18 06:57:33;;;;;;;;;;;;;;;16.91;39.01;100347.66;4950869;28;124659;-65
2023/03/18 06:59:59;;;;;;;;;;;;;;;17.01;38.88;100341.91;4946948;28;98579;-63
2023/03/18 07:02:26;;;;;;;;;;;;;;;17.15;38.89;100347.28;4948727;28;112821;-66
2023/03/18 07:04:52;;;;;;;;;;;;;;;17.31;38.94;100347.66;4935691;28;99058;-63
2023/03/18 07:07:18;;;;;;;;;;;;;;;17.42;38.75;100354.44;4948018;28;123179;-65
2023/03/18 07:09:44;;;;;;;;;;;;;;;17.57;38.75;100348.56;4949601;28;98386;-65
2023/03/18 07:12:12;;;;;;;;;;;;;;;17.71;38.85;100359.31;4949115;28;122483;-63
2023/03/18 07:14:39;;;;;;;;;;;;;;;17.83;38.71;100361.44;4932891;28;98837;-66
2023/03/18 07:17:05;;;;;;;;;;;;;;;17.97;38.63;100364.06;4946029;28;98677;-63
2023/03/18 07:19:32;;;;;;;;;;;;;;;18.10;38.52;100368.53;4949041;28;111960;-65
2023/03/18 07:21:58;;;;;;;;;;;;;;;18.20;38.56;100368.25;4946818;28;99707;-63
2023/03/18 07:24:25;;;;;;;;;;;;;;;18.31;38.61;100366.81;4948972;28;121605;-63
2023/03/18 07:26:51;;;;;;;;;;;;;;;18.40;38.75;100358.59;4948513;28;98022;-62
2023/03/18 07:29:17;;;;;;;;;;;;;;;18.45;38.72;100368.56;4946882;28;98496;-66
2023/03/18 07:31:43;;;;;;;;;;;;;;;18.48;38.70;100370.66;4944554;28;121789;-65
2023/03/18 07:34:09;;;;;;;;;;;;;;;18.52;38.64;100366.94;4947818;28;99083;-63
2023/03/18 07:36:38;;;;;;;;;;;;;;;18.59;38.82;100366.47;4949682;28;97875;-66
2023/03/18 07:39:04;;;;;;;;;;;;;;;18.67;38.72;100375.72;4949385;28;98041;-63
2023/03/18 07:41:30;;;;;;;;;;;;;;;18.76;38.72;100365.66;4949475;28;98660;-65
2023/03/18 07:43:56;;;;;;;;;;;;;;;18.84;38.59;100370.28;4944156;28;127132;-63
2023/03/18 07:46:22;;;;;;;;;;;;;;;18.90;38.74;100385.34;4943320;28;129374;-63
2023/03/18 07:48:48;;;;;;;;;;;;;;;18.95;38.74;100382.47;4946811;28;98124;-63
2023/03/18 07:51:14;;;;;;;;;;;;;;;19.06;38.57;100382.91;4947301;28;99836;-63
2023/03/18 07:53:41;;;;;;;;;;;;;;;19.15;38.75;100382.91;4945466;28;100031;-63
2023/03/18 07:56:08;;;;;;;;;;;;;;;19.25;38.53;100394.25;4946291;28;121431;-66
2023/03/18 07:58:34;;;;;;;;;;;;;;;19.31;38.65;100384.75;4947023;28;99185;-65
2023/03/18 08:01:00;;;;;;;;;;;;;;;19.40;38.58;100386.66;4947024;28;122931;-63
2023/03/18 08:03:26;;;;;;;;;;;;;;;19.48;38.52;100392.06;4930309;28;121915;-63
2023/03/18 08:05:53;;;;;;;;;;;;;;;19.56;38.49;100390.44;4946756;28;126288;-66
2023/03/18 08:08:18;;;;;;;;;;;;;;;19.69;38.54;100394.09;4931066;28;122704;-63
2023/03/18 08:10:44;;;;;;;;;;;;;;;19.75;38.47;100399.03;4948121;28;119051;-65
2023/03/18 08:13:11;;;;;;;;;;;;;;;19.80;38.48;100390.63;4947942;28;129497;-63
2023/03/18 08:15:38;;;;;;;;;;;;;;;19.84;38.39;100397.06;4952009;28;98602;-66
2023/03/18 08:18:03;;;;;;;;;;;;;;;19.91;38.50;100398.47;4950098;28;98791;-66
2023/03/18 08:20:29;;;;;;;;;;;;;;;20.04;38.22;100400.97;4948404;28;108076;-62
2023/03/18 08:22:55;;;;;;;;;;;;;;;20.10;38.19;100399.63;4948388;28;126797;-65
2023/03/18 08:25:22;;;;;;;;;;;;;;;20.10;38.20;100410.56;4930936;28;102236;-63
2023/03/18 08:27:48;;;;;;;;;;;;;;;20.15;38.26;100414.25;4951227;28;97944;-65
2023/03/18 08:30:15;;;;;;;;;;;;;;;20.07;38.40;100407.69;4948132;28;98148;-63
2023/03/18 08:32:41;;;;;;;;;;;;;;;20.04;38.49;100408.34;4951883;28;98057;-65
2023/03/18 08:35:08;;;;;;;;;;;;;;;20.06;38.46;100409.63;4951810;28;98323;-62
2023/03/18 08:37:35;;;;;;;;;;;;;;;20.07;38.48;100408.50;4950698;28;98019;-63
2023/03/18 08:40:01;;;;;;;;;;;;;;;20.14;38.40;100415.38;4934478;28;97907;-63
2023/03/18 08:42:27;;;;;;;;;;;;;;;20.27;38.13;100408.84;4952157;28;123533;-63
2023/03/18 08:44:53;;;;;;;;;;;;;;;20.44;38.28;100414.19;4952119;28;98193;-65
2023/03/18 08:47:20;;;;;;;;;;;;;;;20.65;38.00;100413.41;4952311;28;125805;-66
2023/03/18 08:49:46;;;;;;;;;;;;;;;20.81;37.92;100403.41;4951167;28;97865;-63
2023/03/18 08:52:12;;;;;;;;;;;;;;;20.95;37.89;100408.59;4953088;28;99183;-65
2023/03/18 08:54:38;;;;;;;;;;;;;;;21.10;37.83;100399.72;4952793;28;103949;-63
2023/03/18 08:57:04;;;;;;;;;;;;;;;21.40;37.56;100405.03;4952166;28;98066;-63
2023/03/18 08:59:30;;;;;;;;;;;;;;;21.62;37.61;100407.34;4935771;28;123751;-65
2023/03/18 09:01:56;;;;;;;;;;;;;;;21.89;37.37;100414.09;4949089;28;100959;-64
2023/03/18 09:04:24;;;;;;;;;;;;;;;22.24;37.32;100402.59;4948653;28;98808;-65
2023/03/18 09:06:50;;;;;;;;;;;;;;;22.67;37.11;100417.53;4934145;28;98551;-63
2023/03/18 09:09:16;;;;;;;;;;;;;;;22.95;36.79;100414.81;4950961;28;98001;-63
2023/03/18 09:11:45;;;;;;;;;;;;;;;23.12;37.15;100417.25;4953542;28;98234;-66
2023/03/18 09:14:12;;;;;;;;;;;;;;;23.33;36.89;100413.44;4952663;28;99514;-64
2023/03/18 09:16:38;;;;;;;;;;;;;;;23.48;37.07;100416.19;4923107;28;99091;-63
2023/03/18 09:19:04;;;;;;;;;;;;;;;23.64;36.81;100418.91;4953932;28;118009;-64
2023/03/18 09:21:30;;;;;;;;;;;;;;;23.86;36.94;100425.78;4954085;28;99147;-64
2023/03/18 09:23:56;;;;;;;;;;;;;;;24.06;36.64;100425.81;4949948;28;100422;-63
2023/03/18 09:26:22;;;;;;;;;;;;;;;24.15;36.87;100427.19;4951146;28;97990;-67
2023/03/18 09:28:48;;;;;;;;;;;;;;;24.38;36.67;100421.81;4947549;28;117353;-67
2023/03/18 09:31:14;;;;;;;;;;;;;;;24.70;36.52;100429.94;4931564;28;127022;-66
2023/03/18 09:33:41;;;;;;;;;;;;;;;24.82;36.51;100426.22;4954340;28;122495;-66
2023/03/18 09:36:08;;;;;;;;;;;;;;;24.98;36.51;100422.22;4952015;28;98018;-64
2023/03/18 09:38:34;;;;;;;;;;;;;;;25.05;36.47;100423.50;4951231;28;120115;-64
2023/03/18 09:41:07;;;;;;;;;;;;;;;25.20;36.40;100419.88;4948827;28;99427;-66
2023/03/18 09:43:59;;;;;;;;;;;;;;;25.40;36.70;100431.66;4932493;28;100215;-64
2023/03/18 09:46:45;;;;;;;;;;;;;;;25.58;36.42;100418.91;4939676;28;100187;-65
2023/03/18 09:49:14;;;;;;;;;;;;;;;25.85;36.59;100417.00;4933612;28;119986;-63
2023/03/18 09:51:56;;;;;;;;;;;;;;;26.05;36.30;100414.91;4955449;28;98824;-63
2023/03/18 09:54:28;;;;;;;;;;;;;;;26.34;36.36;100418.06;4927463;28;98452;-66
2023/03/18 09:56:54;;;;;;;;;;;;;;;26.49;36.42;100424.59;4934053;28;98081;-64
2023/03/18 09:59:34;;;;;;;;;;;;;;;26.70;36.17;100413.78;4947938;28;120633;-64
2023/03/18 10:02:00;;;;;;;;;;;;;;;26.95;36.24;100422.34;4933379;28;98462;-65
2023/03/18 10:04:40;;;;;;;;;;;;;;;27.17;35.89;100426.16;4932531;28;119577;-66
2023/03/18 10:07:16;;;;;;;;;;;;;;;27.29;36.17;100427.84;4946706;28;98695;-64
2023/03/18 10:09:46;;;;;;;;;;;;;;;27.47;35.73;100408.63;4937403;28;98398;-63
2023/03/18 10:12:34;;;;;;;;;;;;;;;27.69;36.00;100417.88;4934976;28;123370;-66
2023/03/18 10:15:28;;;;;;;;;;;;;;;27.88;35.77;100415.69;4934883;28;98892;-64
2023/03/18 10:17:58;;;;;;;;;;;;;;;28.04;35.99;100412.59;4938924;28;121838;-66
2023/03/18 10:20:36;;;;;;;;;;;;;;;28.09;35.72;100414.22;4938171;28;116231;-66
2023/03/18 10:23:08;;;;;;;;;;;;;;;28.31;36.01;100423.44;4923171;28;98401;-64
2023/03/18 10:25:51;;;;;;;;;;;;;;;28.43;36.19;100434.19;4926264;28;98937;-64
2023/03/18 10:28:32;;;;;;;;;;;;;;;28.32;36.28;100425.81;4939801;28;98391;-66
2023/03/18 10:31:24;;;;;;;;;;;;;;;28.08;36.34;100418.16;4934085;28;98254;-65
2023/03/18 10:33:58;;;;;;;;;;;;;;;28.11;36.26;100418.19;4950605;28;98392;-66
2023/03/18 10:36:36;;;;;;;;;;;;;;;27.92;36.64;100420.44;4951438;28;98583;-66
2023/03/18 10:39:02;;;;;;;;;;;;;;;27.59;36.82;100422.19;4947305;28;99054;-65
2023/03/18 10:41:29;;;;;;;;;;;;;;;27.31;37.10;100419.94;4953584;28;97884;-66
2023/03/18 10:43:55;;;;;;;;;;;;;;;27.09;37.17;100419.72;4950902;28;100996;-64
2023/03/18 10:46:21;;;;;;;;;;;;;;;26.97;37.10;100424.75;4931755;28;119895;-65
2023/03/18 10:48:54;;;;;;;;;;;;;;;26.92;37.26;100421.16;4951126;28;98299;-64
2023/03/18 10:51:45;;;;;;;;;;;;;;;26.79;37.11;100416.25;4948687;28;121783;-64
2023/03/18 10:54:32;;;;;;;;;;;;;;;26.62;37.36;100426.75;4937327;28;99040;-67
2023/03/18 10:56:58;;;;;;;;;;;;;;;26.42;37.55;100425.28;4936537;28;99129;-64
2023/03/18 10:59:25;;;;;;;;;;;;;;;26.24;37.48;100427.81;4948228;28;97950;-64
2023/03/18 11:02:10;;;;;;;;;;;;;;;26.06;37.68;100418.50;4951749;28;98107;-67
2023/03/18 11:04:44;;;;;;;;;;;;;;;25.81;37.86;100416.16;4950555;28;125682;-65
2023/03/18 11:07:18;;;;;;;;;;;;;;;25.62;37.96;100418.97;4916230;28;99083;-64
2023/03/18 11:09:44;;;;;;;;;;;;;;;25.39;38.19;100419.81;4933300;28;98190;-66
2023/03/18 11:12:15;;;;;;;;;;;;;;;25.22;38.20;100428.56;4934770;28;120613;-63
2023/03/18 11:14:46;;;;;;;;;;;;;;;25.07;37.92;100435.75;4945339;28;99613;-66
2023/03/18 11:17:26;;;;;;;;;;;;;;;25.01;38.23;100430.91;4947829;28;99053;-64
2023/03/18 11:20:19;;;;;;;;;;;;;;;24.98;38.00;100436.00;4932577;28;98519;-66
2023/03/18 11:22:46;;;;;;;;;;;;;;;24.96;38.00;100441.09;4948567;28;98038;-66
2023/03/18 11:25:16;;;;;;;;;;;;;;;25.03;37.64;100437.66;4932971;28;98618;-66
2023/03/18 11:27:47;;;;;;;;;;;;;;;25.09;37.73;100424.38;4948723;28;98668;-63
2023/03/18 11:30:17;;;;;;;;;;;;;;;25.11;37.65;100427.56;4949554;28;99287;-65
2023/03/18 11:33:00;;;;;;;;;;;;;;;25.21;37.57;100436.03;4948915;28;99876;-66
2023/03/18 11:35:44;;;;;;;;;;;;;;;25.48;37.42;100424.28;4949703;28;97961;-66
2023/03/18 11:38:18;;;;;;;;;;;;;;;25.89;36.95;100425.34;4063402;28;10002290;-66
2023/03/18 11:40:45;;;;;;;;;;;;;;;26.10;36.96;100417.38;4945772;28;125757;-66
2023/03/18 11:43:19;;;;;;;;;;;;;;;26.23;36.81;100420.69;4949340;28;99326;-67
2023/03/18 11:45:51;;;;;;;;;;;;;;;26.15;36.89;100413.50;4952467;28;98606;-66
2023/03/18 11:48:29;;;;;;;;;;;;;;;25.92;37.20;100417.09;4935098;28;113862;-64
2023/03/18 11:51:21;;;;;;;;;;;;;;;25.74;37.37;100413.25;4933668;28;98798;-66
2023/03/18 11:54:09;;;;;;;;;;;;;;;25.59;37.48;100419.75;4950448;28;99114;-64
2023/03/18 11:56:47;;;;;;;;;;;;;;;25.43;37.64;100417.91;4948376;28;97832;-66
2023/03/18 11:59:29;;;;;;;;;;;;;;;25.29;37.74;100416.88;4918323;28;102352;-63
2023/03/18 12:02:09;;;;;;;;;;;;;;;25.13;37.91;100415.03;4931236;28;99433;-67
2023/03/18 12:05:07;;;;;;;;;;;;;;;24.98;37.78;100424.97;4950796;28;99134;-66
2023/03/18 12:07:43;;;;;;;;;;;;;;;24.84;37.99;100419.19;4926808;28;100443;-65
2023/03/18 12:10:31;;;;;;;;;;;;;;;24.75;37.82;100415.84;4928558;28;122326;-65
2023/03/18 12:13:06;;;;;;;;;;;;;;;24.72;37.88;100420.16;4935873;28;98754;-66
2023/03/18 12:15:35;;;;;;;;;;;;;;;24.73;37.85;100412.69;4924128;28;98840;-66
2023/03/18 12:18:11;;;;;;;;;;;;;;;24.82;37.79;100413.25;4936366;28;101032;-67
2023/03/18 12:20:49;;;;;;;;;;;;;;;24.87;37.72;100412.16;4952427;28;98266;-64
2023/03/18 12:23:21;;;;;;;;;;;;;;;24.87;37.54;100409.38;4938359;28;98974;-66
2023/03/18 12:26:07;;;;;;;;;;;;;;;24.82;37.59;100407.72;4932416;28;98249;-64
2023/03/18 12:28:56;;;;;;;;;;;;;;;25.05;37.51;100418.00;4915554;28;98214;-66
2023/03/18 12:31:45;;;;;;;;;;;;;;;25.02;37.57;100410.47;4928142;28;97954;-65
2023/03/18 12:34:26;;;;;;;;;;;;;;;25.19;37.38;100408.06;4937524;28;98299;-65
2023/03/18 12:37:04;;;;;;;;;;;;;;;25.37;37.16;100402.81;4937617;28;98993;-64
2023/03/18 12:40:11;;;;;;;;;;;;;;;25.27;37.36;100399.88;4949004;28;99989;-64
2023/03/18 12:42:49;;;;;;;;;;;;;;;25.27;37.41;100408.97;4951386;28;98549;-66